VAM | Vabird-VBD

Virtual Vabird! Aerolínea Virtual de habla hispana, desde 2011




 INFORMACIÓN METAR y TAF
METAR FOR ESSD
ADDS - METARS form results

(2055 UTC 12 June 2021)
Data provider http://aviationweather.gov/metar/data/
 
METAR text: ESSD 122050Z AUTO 26008KT 9999 FEW080/// SCT110/// 12/08 Q1005
Conditions at: ESSD (BORLANGE (SWE-AF, SE) observed 2050 UTC 12 June 2021
Temperature: 12.0°C (54°F)
Dewpoint: 8.0°C (46°F) [RH = 76%]
Pressure (altimeter): 29.68 inches Hg (1005.0 mb)
Winds: from the W (260 degrees) at 9 MPH (8 knots; 4.1 m/s)
Visibility: 6 or more miles (10+ km)
Ceiling: at least 12,000 feet AGL
Clouds: few clouds at 8000 feet AGL
scattered clouds at 11000 feet AGL
Weather: no significant weather observed at this time

METAR text: ESSD 122020Z AUTO 25004KT 9999 BKN110/// 13/09 Q1005
Conditions at: ESSD (BORLANGE (SWE-AF, SE) observed 2020 UTC 12 June 2021
Temperature: 13.0°C (55°F)
Dewpoint: 9.0°C (48°F) [RH = 77%]
Pressure (altimeter): 29.68 inches Hg (1005.0 mb)
Winds: from the WSW (250 degrees) at 5 MPH (4 knots; 2.1 m/s)
Visibility: 6 or more miles (10+ km)
Ceiling: 11000 feet AGL
Clouds: broken clouds at 11000 feet AGL
Weather: no significant weather observed at this time

 MAPA DE AEROPUERTO

 INFORMACIÓN DE PISTA